Northway Airport Northway US
ICAO: PAOR
IATA:
Category: Medium
Scheduled Services:

Elevation: 1715 ft
TransAlt. 18000 ft.

Airport Communications:
ASOS:135.4
ANCHORAGE CNTR:126.55
CTAF:123.6
RDO:122.2
SUAS INFO SVC:125.3

PAOR Zoom In..

If you have problems with the map follow the link
https://www.worldairports.se/pages/airport.php?
ICAO=PAOR

Runways:

(A) RW 05 length 5100 ft width 100 ft
---- / hdg 52

(B) RW 23 length 5100 ft width 100 ft
---- / hdg 232

Location; PAOR
Day. 18 / Time. 01.53 Zulu
* Altimeter: 29.90
* Temperature: -14° c. -6.8°f.
* Wind from: 000° Speed 00 kn.
Dewpoint: -19° c.
Visibility: 10 Statute Miles.
Clouds: Scattered 11000 ft.
Clouds: Broken 16000 ft.
Clouds: Broken 21000 ft.

PAOR 180153Z 00000KT 10SM SCT110 BKN160 BKN210 M14/M19 A2990 RMK AO2 SLP184 T11391189


Wind - Calm.

 
 
jpsmedia.com for Web Design worldairports.se 2019   terms of use